sensor_id;sensor_type;location;lat;lon;timestamp;P1;P2;P0
64613;PMS5003;51025;37.772;-122.432;2022-11-11T00:00:03;4;4;
64613;PMS5003;51025;37.772;-122.432;2022-11-11T00:02:32;6;6;
64613;PMS5003;51025;37.772;-122.432;2022-11-11T00:05:01;6;6;
64613;PMS5003;51025;37.772;-122.432;2022-11-11T00:07:30;7;6;
64613;PMS5003;51025;37.772;-122.432;2022-11-11T00:09:59;4;4;
64613;PMS5003;51025;37.772;-122.432;2022-11-11T00:12:28;5;4;
64613;PMS5003;51025;37.772;-122.432;2022-11-11T00:14:57;4;4;
64613;PMS5003;51025;37.772;-122.432;2022-11-11T00:17:25;4;4;
64613;PMS5003;51025;37.772;-122.432;2022-11-11T00:19:53;6;6;
64613;PMS5003;51025;37.772;-122.432;2022-11-11T00:22:21;7;5;
64613;PMS5003;51025;37.772;-122.432;2022-11-11T00:24:50;5;5;
64613;PMS5003;51025;37.772;-122.432;2022-11-11T00:27:18;4;4;
64613;PMS5003;51025;37.772;-122.432;2022-11-11T00:29:46;6;3;
64613;PMS5003;51025;37.772;-122.432;2022-11-11T00:32:15;5;5;
64613;PMS5003;51025;37.772;-122.432;2022-11-11T00:34:44;5;4;
64613;PMS5003;51025;37.772;-122.432;2022-11-11T00:37:12;6;6;
64613;PMS5003;51025;37.772;-122.432;2022-11-11T00:39:40;6;6;
64613;PMS5003;51025;37.772;-122.432;2022-11-11T00:42:09;7;6;
64613;PMS5003;51025;37.772;-122.432;2022-11-11T00:44:37;6;5;
64613;PMS5003;51025;37.772;-122.432;2022-11-11T00:47:05;5;5;
64613;PMS5003;51025;37.772;-122.432;2022-11-11T00:49:34;7;5;
64613;PMS5003;51025;37.772;-122.432;2022-11-11T00:52:03;5;5;
64613;PMS5003;51025;37.772;-122.432;2022-11-11T00:54:32;6;5;
64613;PMS5003;51025;37.772;-122.432;2022-11-11T00:57:00;4;4;
64613;PMS5003;51025;37.772;-122.432;2022-11-11T00:59:29;7;7;
64613;PMS5003;51025;37.772;-122.432;2022-11-11T01:01:58;9;7;
64613;PMS5003;51025;37.772;-122.432;2022-11-11T01:04:26;7;7;
64613;PMS5003;51025;37.772;-122.432;2022-11-11T01:06:54;6;4;
64613;PMS5003;51025;37.772;-122.432;2022-11-11T01:09:22;7;6;
64613;PMS5003;51025;37.772;-122.432;2022-11-11T01:11:50;4;4;
64613;PMS5003;51025;37.772;-122.432;2022-11-11T01:14:18;5;5;
64613;PMS5003;51025;37.772;-122.432;2022-11-11T01:16:46;6;6;
64613;PMS5003;51025;37.772;-122.432;2022-11-11T01:19:14;9;7;
64613;PMS5003;51025;37.772;-122.432;2022-11-11T01:21:43;6;6;
64613;PMS5003;51025;37.772;-122.432;2022-11-11T01:24:11;7;7;
64613;PMS5003;51025;37.772;-122.432;2022-11-11T01:26:40;6;4;
64613;PMS5003;51025;37.772;-122.432;2022-11-11T01:29:08;7;5;
64613;PMS5003;51025;37.772;-122.432;2022-11-11T01:31:37;7;7;
64613;PMS5003;51025;37.772;-122.432;2022-11-11T01:34:06;5;5;
64613;PMS5003;51025;37.772;-122.432;2022-11-11T01:36:34;5;5;
64613;PMS5003;51025;37.772;-122.432;2022-11-11T01:39:03;5;5;
64613;PMS5003;51025;37.772;-122.432;2022-11-11T01:41:32;5;5;
64613;PMS5003;51025;37.772;-122.432;2022-11-11T01:44:02;10;10;
64613;PMS5003;51025;37.772;-122.432;2022-11-11T01:46:46;7;7;
64613;PMS5003;51025;37.772;-122.432;2022-11-11T01:49:20;9;7;
64613;PMS5003;51025;37.772;-122.432;2022-11-11T01:51:55;6;6;
64613;PMS5003;51025;37.772;-122.432;2022-11-11T01:54:31;9;8;
64613;PMS5003;51025;37.772;-122.432;2022-11-11T01:57:04;6;6;
64613;PMS5003;51025;37.772;-122.432;2022-11-11T01:59:42;8;6;
64613;PMS5003;51025;37.772;-122.432;2022-11-11T02:02:14;5;5;
64613;PMS5003;51025;37.772;-122.432;2022-11-11T02:04:48;6;5;
64613;PMS5003;51025;37.772;-122.432;2022-11-11T02:07:17;7;6;
64613;PMS5003;51025;37.772;-122.432;2022-11-11T02:09:47;6;5;
64613;PMS5003;51025;37.772;-122.432;2022-11-11T02:12:17;5;5;
64613;PMS5003;51025;37.772;-122.432;2022-11-11T02:14:46;7;7;
64613;PMS5003;51025;37.772;-122.432;2022-11-11T02:17:18;6;4;
64613;PMS5003;51025;37.772;-122.432;2022-11-11T02:19:48;7;7;
64613;PMS5003;51025;37.772;-122.432;2022-11-11T02:22:22;9;7;
64613;PMS5003;51025;37.772;-122.432;2022-11-11T02:24:58;10;10;
64613;PMS5003;51025;37.772;-122.432;2022-11-11T02:27:29;7;6;
64613;PMS5003;51025;37.772;-122.432;2022-11-11T02:30:01;7;6;
64613;PMS5003;51025;37.772;-122.432;2022-11-11T02:32:33;8;8;
64613;PMS5003;51025;37.772;-122.432;2022-11-11T02:35:01;8;8;
64613;PMS5003;51025;37.772;-122.432;2022-11-11T02:37:35;9;8;
64613;PMS5003;51025;37.772;-122.432;2022-11-11T02:40:04;7;7;
64613;PMS5003;51025;37.772;-122.432;2022-11-11T02:42:34;6;6;
64613;PMS5003;51025;37.772;-122.432;2022-11-11T02:45:03;10;8;
64613;PMS5003;51025;37.772;-122.432;2022-11-11T02:47:32;7;7;
64613;PMS5003;51025;37.772;-122.432;2022-11-11T02:50:01;6;6;
64613;PMS5003;51025;37.772;-122.432;2022-11-11T02:52:30;9;8;
64613;PMS5003;51025;37.772;-122.432;2022-11-11T02:54:58;6;6;
64613;PMS5003;51025;37.772;-122.432;2022-11-11T02:57:27;9;7;
64613;PMS5003;51025;37.772;-122.432;2022-11-11T02:59:57;10;6;
64613;PMS5003;51025;37.772;-122.432;2022-11-11T03:02:26;9;7;
64613;PMS5003;51025;37.772;-122.432;2022-11-11T03:04:56;7;7;
64613;PMS5003;51025;37.772;-122.432;2022-11-11T03:07:24;8;8;
64613;PMS5003;51025;37.772;-122.432;2022-11-11T03:09:52;8;8;
64613;PMS5003;51025;37.772;-122.432;2022-11-11T03:12:21;6;6;
64613;PMS5003;51025;37.772;-122.432;2022-11-11T03:14:49;7;7;
64613;PMS5003;51025;37.772;-122.432;2022-11-11T03:17:18;6;6;
64613;PMS5003;51025;37.772;-122.432;2022-11-11T03:19:47;7;6;
64613;PMS5003;51025;37.772;-122.432;2022-11-11T03:22:16;9;8;
64613;PMS5003;51025;37.772;-122.432;2022-11-11T03:24:44;7;7;
64613;PMS5003;51025;37.772;-122.432;2022-11-11T03:27:13;9;8;
64613;PMS5003;51025;37.772;-122.432;2022-11-11T03:29:42;5;5;
64613;PMS5003;51025;37.772;-122.432;2022-11-11T03:32:11;11;10;
64613;PMS5003;51025;37.772;-122.432;2022-11-11T03:34:39;6;6;
64613;PMS5003;51025;37.772;-122.432;2022-11-11T03:37:08;7;7;
64613;PMS5003;51025;37.772;-122.432;2022-11-11T03:39:37;7;7;
64613;PMS5003;51025;37.772;-122.432;2022-11-11T03:42:06;8;7;
64613;PMS5003;51025;37.772;-122.432;2022-11-11T03:44:35;12;11;
64613;PMS5003;51025;37.772;-122.432;2022-11-11T03:47:03;8;8;
64613;PMS5003;51025;37.772;-122.432;2022-11-11T03:49:31;9;9;
64613;PMS5003;51025;37.772;-122.432;2022-11-11T03:52:00;9;9;
64613;PMS5003;51025;37.772;-122.432;2022-11-11T03:54:29;8;7;
64613;PMS5003;51025;37.772;-122.432;2022-11-11T03:56:58;10;10;
64613;PMS5003;51025;37.772;-122.432;2022-11-11T03:59:27;11;8;
64613;PMS5003;51025;37.772;-122.432;2022-11-11T04:01:56;6;6;
64613;PMS5003;51025;37.772;-122.432;2022-11-11T04:04:25;8;8;
64613;PMS5003;51025;37.772;-122.432;2022-11-11T04:06:53;7;7;
64613;PMS5003;51025;37.772;-122.432;2022-11-11T04:09:21;10;9;
64613;PMS5003;51025;37.772;-122.432;2022-11-11T04:11:49;10;10;
64613;PMS5003;51025;37.772;-122.432;2022-11-11T04:14:18;6;6;
64613;PMS5003;51025;37.772;-122.432;2022-11-11T04:16:47;8;8;
64613;PMS5003;51025;37.772;-122.432;2022-11-11T04:19:15;7;7;
64613;PMS5003;51025;37.772;-122.432;2022-11-11T04:21:44;13;12;
64613;PMS5003;51025;37.772;-122.432;2022-11-11T04:24:14;26;22;
64613;PMS5003;51025;37.772;-122.432;2022-11-11T04:26:44;57;56;
64613;PMS5003;51025;37.772;-122.432;2022-11-11T04:29:13;64;61;
64613;PMS5003;51025;37.772;-122.432;2022-11-11T04:31:41;65;61;
64613;PMS5003;51025;37.772;-122.432;2022-11-11T04:34:10;67;62;
64613;PMS5003;51025;37.772;-122.432;2022-11-11T04:36:38;60;56;
64613;PMS5003;51025;37.772;-122.432;2022-11-11T04:39:07;57;55;
64613;PMS5003;51025;37.772;-122.432;2022-11-11T04:41:35;57;53;
64613;PMS5003;51025;37.772;-122.432;2022-11-11T04:44:04;61;53;
64613;PMS5003;51025;37.772;-122.432;2022-11-11T04:46:32;55;53;
64613;PMS5003;51025;37.772;-122.432;2022-11-11T04:49:00;52;45;
64613;PMS5003;51025;37.772;-122.432;2022-11-11T04:51:30;55;51;
64613;PMS5003;51025;37.772;-122.432;2022-11-11T04:53:59;54;46;
64613;PMS5003;51025;37.772;-122.432;2022-11-11T04:56:27;43;42;
64613;PMS5003;51025;37.772;-122.432;2022-11-11T04:58:55;48;43;
64613;PMS5003;51025;37.772;-122.432;2022-11-11T05:01:24;45;41;
64613;PMS5003;51025;37.772;-122.432;2022-11-11T05:03:52;37;33;
64613;PMS5003;51025;37.772;-122.432;2022-11-11T05:06:20;41;39;
64613;PMS5003;51025;37.772;-122.432;2022-11-11T05:08:49;34;34;
64613;PMS5003;51025;37.772;-122.432;2022-11-11T05:11:17;41;39;
64613;PMS5003;51025;37.772;-122.432;2022-11-11T05:13:46;31;30;
64613;PMS5003;51025;37.772;-122.432;2022-11-11T05:16:15;32;31;
64613;PMS5003;51025;37.772;-122.432;2022-11-11T05:18:47;32;30;
64613;PMS5003;51025;37.772;-122.432;2022-11-11T05:21:16;30;28;
64613;PMS5003;51025;37.772;-122.432;2022-11-11T05:23:48;33;31;
64613;PMS5003;51025;37.772;-122.432;2022-11-11T05:26:17;35;33;
64613;PMS5003;51025;37.772;-122.432;2022-11-11T05:28:45;28;27;
64613;PMS5003;51025;37.772;-122.432;2022-11-11T05:31:14;29;27;
64613;PMS5003;51025;37.772;-122.432;2022-11-11T05:33:42;28;26;
64613;PMS5003;51025;37.772;-122.432;2022-11-11T05:36:11;27;26;
64613;PMS5003;51025;37.772;-122.432;2022-11-11T05:38:39;24;23;
64613;PMS5003;51025;37.772;-122.432;2022-11-11T05:41:08;26;24;
64613;PMS5003;51025;37.772;-122.432;2022-11-11T05:43:36;22;21;
64613;PMS5003;51025;37.772;-122.432;2022-11-11T05:46:05;22;20;
64613;PMS5003;51025;37.772;-122.432;2022-11-11T05:48:34;20;20;
64613;PMS5003;51025;37.772;-122.432;2022-11-11T05:51:03;24;23;
64613;PMS5003;51025;37.772;-122.432;2022-11-11T05:53:32;18;17;
64613;PMS5003;51025;37.772;-122.432;2022-11-11T05:56:00;19;18;
64613;PMS5003;51025;37.772;-122.432;2022-11-11T05:58:29;19;18;
64613;PMS5003;51025;37.772;-122.432;2022-11-11T06:00:58;20;19;
64613;PMS5003;51025;37.772;-122.432;2022-11-11T06:03:27;17;17;
64613;PMS5003;51025;37.772;-122.432;2022-11-11T06:05:57;23;21;
64613;PMS5003;51025;37.772;-122.432;2022-11-11T06:08:24;20;18;
64613;PMS5003;51025;37.772;-122.432;2022-11-11T06:10:53;20;15;
64613;PMS5003;51025;37.772;-122.432;2022-11-11T06:13:22;22;21;
64613;PMS5003;51025;37.772;-122.432;2022-11-11T06:15:50;21;17;
64613;PMS5003;51025;37.772;-122.432;2022-11-11T06:18:19;17;16;
64613;PMS5003;51025;37.772;-122.432;2022-11-11T06:20:51;15;14;
64613;PMS5003;51025;37.772;-122.432;2022-11-11T06:23:20;17;15;
64613;PMS5003;51025;37.772;-122.432;2022-11-11T06:25:49;16;14;
64613;PMS5003;51025;37.772;-122.432;2022-11-11T06:28:19;19;18;
64613;PMS5003;51025;37.772;-122.432;2022-11-11T06:30:47;14;14;
64613;PMS5003;51025;37.772;-122.432;2022-11-11T06:33:15;16;14;
64613;PMS5003;51025;37.772;-122.432;2022-11-11T06:35:44;15;15;
64613;PMS5003;51025;37.772;-122.432;2022-11-11T06:38:12;15;15;
64613;PMS5003;51025;37.772;-122.432;2022-11-11T06:40:41;14;12;
64613;PMS5003;51025;37.772;-122.432;2022-11-11T06:43:09;17;15;
64613;PMS5003;51025;37.772;-122.432;2022-11-11T06:45:38;17;14;
64613;PMS5003;51025;37.772;-122.432;2022-11-11T06:48:07;17;14;
64613;PMS5003;51025;37.772;-122.432;2022-11-11T06:50:36;13;11;
64613;PMS5003;51025;37.772;-122.432;2022-11-11T06:53:04;14;13;
64613;PMS5003;51025;37.772;-122.432;2022-11-11T06:55:33;18;16;
64613;PMS5003;51025;37.772;-122.432;2022-11-11T06:58:04;14;12;
64613;PMS5003;51025;37.772;-122.432;2022-11-11T07:00:33;19;18;
64613;PMS5003;51025;37.772;-122.432;2022-11-11T07:03:02;14;14;
64613;PMS5003;51025;37.772;-122.432;2022-11-11T07:05:31;15;14;
64613;PMS5003;51025;37.772;-122.432;2022-11-11T07:08:01;16;13;
64613;PMS5003;51025;37.772;-122.432;2022-11-11T07:10:30;14;12;
64613;PMS5003;51025;37.772;-122.432;2022-11-11T07:13:00;13;12;
64613;PMS5003;51025;37.772;-122.432;2022-11-11T07:15:29;16;16;
64613;PMS5003;51025;37.772;-122.432;2022-11-11T07:17:58;19;18;
64613;PMS5003;51025;37.772;-122.432;2022-11-11T07:20:27;13;12;
64613;PMS5003;51025;37.772;-122.432;2022-11-11T07:22:56;15;15;
64613;PMS5003;51025;37.772;-122.432;2022-11-11T07:25:25;15;13;
64613;PMS5003;51025;37.772;-122.432;2022-11-11T07:27:53;16;16;
64613;PMS5003;51025;37.772;-122.432;2022-11-11T07:30:22;17;16;
64613;PMS5003;51025;37.772;-122.432;2022-11-11T07:32:51;14;14;
64613;PMS5003;51025;37.772;-122.432;2022-11-11T07:35:20;13;13;
64613;PMS5003;51025;37.772;-122.432;2022-11-11T07:37:48;14;14;
64613;PMS5003;51025;37.772;-122.432;2022-11-11T07:40:18;14;13;
64613;PMS5003;51025;37.772;-122.432;2022-11-11T07:42:46;13;13;
64613;PMS5003;51025;37.772;-122.432;2022-11-11T07:45:14;15;14;
64613;PMS5003;51025;37.772;-122.432;2022-11-11T07:47:42;16;14;
64613;PMS5003;51025;37.772;-122.432;2022-11-11T07:50:11;15;14;
64613;PMS5003;51025;37.772;-122.432;2022-11-11T07:52:45;13;12;
64613;PMS5003;51025;37.772;-122.432;2022-11-11T07:55:15;15;14;
64613;PMS5003;51025;37.772;-122.432;2022-11-11T07:57:44;16;16;
64613;PMS5003;51025;37.772;-122.432;2022-11-11T08:00:12;16;15;
64613;PMS5003;51025;37.772;-122.432;2022-11-11T08:02:47;14;13;
64613;PMS5003;51025;37.772;-122.432;2022-11-11T08:05:15;15;13;
64613;PMS5003;51025;37.772;-122.432;2022-11-11T08:07:44;16;14;
64613;PMS5003;51025;37.772;-122.432;2022-11-11T08:10:13;19;16;
64613;PMS5003;51025;37.772;-122.432;2022-11-11T08:12:41;15;13;
64613;PMS5003;51025;37.772;-122.432;2022-11-11T08:15:10;14;14;
64613;PMS5003;51025;37.772;-122.432;2022-11-11T08:17:39;16;16;
64613;PMS5003;51025;37.772;-122.432;2022-11-11T08:20:08;20;15;
64613;PMS5003;51025;37.772;-122.432;2022-11-11T08:22:37;13;12;
64613;PMS5003;51025;37.772;-122.432;2022-11-11T08:25:08;14;13;
64613;PMS5003;51025;37.772;-122.432;2022-11-11T08:27:38;15;14;
64613;PMS5003;51025;37.772;-122.432;2022-11-11T08:30:08;17;12;
64613;PMS5003;51025;37.772;-122.432;2022-11-11T08:32:37;12;11;
64613;PMS5003;51025;37.772;-122.432;2022-11-11T08:35:06;12;12;
64613;PMS5003;51025;37.772;-122.432;2022-11-11T08:37:34;16;14;
64613;PMS5003;51025;37.772;-122.432;2022-11-11T08:40:03;13;12;
64613;PMS5003;51025;37.772;-122.432;2022-11-11T08:42:32;16;14;
64613;PMS5003;51025;37.772;-122.432;2022-11-11T08:45:01;17;15;
64613;PMS5003;51025;37.772;-122.432;2022-11-11T08:47:30;20;17;
64613;PMS5003;51025;37.772;-122.432;2022-11-11T08:49:59;18;17;
64613;PMS5003;51025;37.772;-122.432;2022-11-11T08:52:27;12;12;
64613;PMS5003;51025;37.772;-122.432;2022-11-11T08:54:56;14;13;
64613;PMS5003;51025;37.772;-122.432;2022-11-11T08:57:25;13;11;
64613;PMS5003;51025;37.772;-122.432;2022-11-11T08:59:53;12;12;
64613;PMS5003;51025;37.772;-122.432;2022-11-11T09:02:21;14;12;
64613;PMS5003;51025;37.772;-122.432;2022-11-11T09:04:50;10;10;
64613;PMS5003;51025;37.772;-122.432;2022-11-11T09:07:18;13;12;
64613;PMS5003;51025;37.772;-122.432;2022-11-11T09:09:46;14;13;
64613;PMS5003;51025;37.772;-122.432;2022-11-11T09:12:15;10;9;
64613;PMS5003;51025;37.772;-122.432;2022-11-11T09:14:43;17;13;
64613;PMS5003;51025;37.772;-122.432;2022-11-11T09:17:12;11;11;
64613;PMS5003;51025;37.772;-122.432;2022-11-11T09:19:40;13;12;
64613;PMS5003;51025;37.772;-122.432;2022-11-11T09:22:08;11;10;
64613;PMS5003;51025;37.772;-122.432;2022-11-11T09:24:36;10;10;
64613;PMS5003;51025;37.772;-122.432;2022-11-11T09:27:04;16;11;
64613;PMS5003;51025;37.772;-122.432;2022-11-11T09:29:33;12;11;
64613;PMS5003;51025;37.772;-122.432;2022-11-11T09:32:02;10;9;
64613;PMS5003;51025;37.772;-122.432;2022-11-11T09:34:31;14;13;
64613;PMS5003;51025;37.772;-122.432;2022-11-11T09:37:00;9;9;
64613;PMS5003;51025;37.772;-122.432;2022-11-11T09:39:29;7;7;
64613;PMS5003;51025;37.772;-122.432;2022-11-11T09:41:58;11;8;
64613;PMS5003;51025;37.772;-122.432;2022-11-11T09:44:41;13;12;
64613;PMS5003;51025;37.772;-122.432;2022-11-11T09:47:28;10;10;
64613;PMS5003;51025;37.772;-122.432;2022-11-11T09:50:07;12;12;
64613;PMS5003;51025;37.772;-122.432;2022-11-11T09:52:39;9;9;
64613;PMS5003;51025;37.772;-122.432;2022-11-11T09:55:12;9;9;
64613;PMS5003;51025;37.772;-122.432;2022-11-11T09:57:45;10;9;
64613;PMS5003;51025;37.772;-122.432;2022-11-11T10:00:20;7;7;
64613;PMS5003;51025;37.772;-122.432;2022-11-11T10:02:52;14;11;
64613;PMS5003;51025;37.772;-122.432;2022-11-11T10:05:25;12;10;
64613;PMS5003;51025;37.772;-122.432;2022-11-11T10:07:59;8;8;
64613;PMS5003;51025;37.772;-122.432;2022-11-11T10:10:37;8;8;
64613;PMS5003;51025;37.772;-122.432;2022-11-11T10:13:11;8;8;
64613;PMS5003;51025;37.772;-122.432;2022-11-11T10:15:46;12;12;
64613;PMS5003;51025;37.772;-122.432;2022-11-11T10:18:28;9;8;
64613;PMS5003;51025;37.772;-122.432;2022-11-11T10:21:12;7;7;
64613;PMS5003;51025;37.772;-122.432;2022-11-11T10:23:44;9;7;
64613;PMS5003;51025;37.772;-122.432;2022-11-11T10:26:16;7;7;
64613;PMS5003;51025;37.772;-122.432;2022-11-11T10:28:47;10;8;
64613;PMS5003;51025;37.772;-122.432;2022-11-11T10:31:19;8;8;
64613;PMS5003;51025;37.772;-122.432;2022-11-11T10:33:50;7;7;
64613;PMS5003;51025;37.772;-122.432;2022-11-11T10:36:22;8;7;
64613;PMS5003;51025;37.772;-122.432;2022-11-11T10:38:55;10;9;
64613;PMS5003;51025;37.772;-122.432;2022-11-11T10:41:30;8;8;
64613;PMS5003;51025;37.772;-122.432;2022-11-11T10:44:17;6;6;
64613;PMS5003;51025;37.772;-122.432;2022-11-11T10:46:51;11;10;
64613;PMS5003;51025;37.772;-122.432;2022-11-11T10:49:26;9;8;
64613;PMS5003;51025;37.772;-122.432;2022-11-11T10:51:59;6;6;
64613;PMS5003;51025;37.772;-122.432;2022-11-11T10:54:34;12;12;
64613;PMS5003;51025;37.772;-122.432;2022-11-11T10:57:10;11;10;
64613;PMS5003;51025;37.772;-122.432;2022-11-11T10:59:43;8;8;
64613;PMS5003;51025;37.772;-122.432;2022-11-11T11:02:19;9;7;
64613;PMS5003;51025;37.772;-122.432;2022-11-11T11:04:51;9;9;
64613;PMS5003;51025;37.772;-122.432;2022-11-11T11:07:25;11;9;
64613;PMS5003;51025;37.772;-122.432;2022-11-11T11:10:02;6;6;
64613;PMS5003;51025;37.772;-122.432;2022-11-11T11:12:37;9;9;
64613;PMS5003;51025;37.772;-122.432;2022-11-11T11:15:10;9;8;
64613;PMS5003;51025;37.772;-122.432;2022-11-11T11:17:54;8;8;
64613;PMS5003;51025;37.772;-122.432;2022-11-11T11:20:28;7;7;
64613;PMS5003;51025;37.772;-122.432;2022-11-11T11:22:57;6;6;
64613;PMS5003;51025;37.772;-122.432;2022-11-11T11:25:25;9;7;
64613;PMS5003;51025;37.772;-122.432;2022-11-11T11:28:04;9;9;
64613;PMS5003;51025;37.772;-122.432;2022-11-11T11:30:33;11;9;
64613;PMS5003;51025;37.772;-122.432;2022-11-11T11:33:02;6;6;
64613;PMS5003;51025;37.772;-122.432;2022-11-11T11:35:32;10;10;
64613;PMS5003;51025;37.772;-122.432;2022-11-11T11:38:03;9;9;
64613;PMS5003;51025;37.772;-122.432;2022-11-11T11:40:50;9;7;
64613;PMS5003;51025;37.772;-122.432;2022-11-11T11:43:24;9;7;
64613;PMS5003;51025;37.772;-122.432;2022-11-11T11:45:58;7;7;
64613;PMS5003;51025;37.772;-122.432;2022-11-11T11:48:33;9;9;
64613;PMS5003;51025;37.772;-122.432;2022-11-11T11:51:15;10;10;
64613;PMS5003;51025;37.772;-122.432;2022-11-11T11:53:57;11;8;
64613;PMS5003;51025;37.772;-122.432;2022-11-11T11:56:44;9;8;
64613;PMS5003;51025;37.772;-122.432;2022-11-11T11:59:16;8;8;
64613;PMS5003;51025;37.772;-122.432;2022-11-11T12:01:51;7;7;
64613;PMS5003;51025;37.772;-122.432;2022-11-11T12:04:48;9;9;
64613;PMS5003;51025;37.772;-122.432;2022-11-11T12:07:32;6;6;
64613;PMS5003;51025;37.772;-122.432;2022-11-11T12:10:16;8;8;
64613;PMS5003;51025;37.772;-122.432;2022-11-11T12:12:55;8;8;
64613;PMS5003;51025;37.772;-122.432;2022-11-11T12:15:35;7;7;
64613;PMS5003;51025;37.772;-122.432;2022-11-11T12:18:15;9;8;
64613;PMS5003;51025;37.772;-122.432;2022-11-11T12:20:55;9;9;
64613;PMS5003;51025;37.772;-122.432;2022-11-11T12:23:37;10;9;
64613;PMS5003;51025;37.772;-122.432;2022-11-11T12:26:18;7;7;
64613;PMS5003;51025;37.772;-122.432;2022-11-11T12:28:57;7;7;
64613;PMS5003;51025;37.772;-122.432;2022-11-11T12:31:50;9;8;
64613;PMS5003;51025;37.772;-122.432;2022-11-11T12:34:34;7;7;
64613;PMS5003;51025;37.772;-122.432;2022-11-11T12:37:21;9;9;
64613;PMS5003;51025;37.772;-122.432;2022-11-11T12:40:03;10;8;
64613;PMS5003;51025;37.772;-122.432;2022-11-11T12:42:49;6;6;
64613;PMS5003;51025;37.772;-122.432;2022-11-11T12:45:30;11;8;
64613;PMS5003;51025;37.772;-122.432;2022-11-11T12:48:12;12;9;
64613;PMS5003;51025;37.772;-122.432;2022-11-11T12:50:56;9;7;
64613;PMS5003;51025;37.772;-122.432;2022-11-11T12:53:36;9;7;
64613;PMS5003;51025;37.772;-122.432;2022-11-11T12:56:14;12;11;
64613;PMS5003;51025;37.772;-122.432;2022-11-11T12:58:53;8;8;
64613;PMS5003;51025;37.772;-122.432;2022-11-11T13:01:29;9;9;
64613;PMS5003;51025;37.772;-122.432;2022-11-11T13:04:47;10;9;
64613;PMS5003;51025;37.772;-122.432;2022-11-11T13:07:28;8;7;
64613;PMS5003;51025;37.772;-122.432;2022-11-11T13:10:14;7;7;
64613;PMS5003;51025;37.772;-122.432;2022-11-11T13:12:52;8;8;
64613;PMS5003;51025;37.772;-122.432;2022-11-11T13:15:31;11;9;
64613;PMS5003;51025;37.772;-122.432;2022-11-11T13:18:00;7;7;
64613;PMS5003;51025;37.772;-122.432;2022-11-11T13:20:42;8;8;
64613;PMS5003;51025;37.772;-122.432;2022-11-11T13:23:16;10;9;
64613;PMS5003;51025;37.772;-122.432;2022-11-11T13:25:45;8;8;
64613;PMS5003;51025;37.772;-122.432;2022-11-11T13:28:19;9;9;
64613;PMS5003;51025;37.772;-122.432;2022-11-11T13:30:53;10;9;
64613;PMS5003;51025;37.772;-122.432;2022-11-11T13:33:35;7;7;
64613;PMS5003;51025;37.772;-122.432;2022-11-11T13:36:07;9;7;
64613;PMS5003;51025;37.772;-122.432;2022-11-11T13:38:44;11;11;
64613;PMS5003;51025;37.772;-122.432;2022-11-11T13:41:20;10;10;
64613;PMS5003;51025;37.772;-122.432;2022-11-11T13:43:50;9;9;
64613;PMS5003;51025;37.772;-122.432;2022-11-11T13:46:29;15;14;
64613;PMS5003;51025;37.772;-122.432;2022-11-11T13:49:01;14;14;
64613;PMS5003;51025;37.772;-122.432;2022-11-11T13:51:34;10;10;
64613;PMS5003;51025;37.772;-122.432;2022-11-11T13:54:06;11;11;
64613;PMS5003;51025;37.772;-122.432;2022-11-11T13:56:47;14;13;
64613;PMS5003;51025;37.772;-122.432;2022-11-11T13:59:18;10;8;
64613;PMS5003;51025;37.772;-122.432;2022-11-11T14:02:11;11;10;
64613;PMS5003;51025;37.772;-122.432;2022-11-11T14:05:19;11;11;
64613;PMS5003;51025;37.772;-122.432;2022-11-11T14:07:50;16;15;
64613;PMS5003;51025;37.772;-122.432;2022-11-11T14:10:53;13;12;
64613;PMS5003;51025;37.772;-122.432;2022-11-11T14:13:40;12;10;
64613;PMS5003;51025;37.772;-122.432;2022-11-11T14:16:10;9;9;
64613;PMS5003;51025;37.772;-122.432;2022-11-11T14:19:27;11;11;
64613;PMS5003;51025;37.772;-122.432;2022-11-11T14:21:57;9;8;
64613;PMS5003;51025;37.772;-122.432;2022-11-11T14:24:30;11;9;
64613;PMS5003;51025;37.772;-122.432;2022-11-11T14:27:02;12;10;
64613;PMS5003;51025;37.772;-122.432;2022-11-11T14:29:46;12;11;
64613;PMS5003;51025;37.772;-122.432;2022-11-11T14:32:35;8;8;
64613;PMS5003;51025;37.772;-122.432;2022-11-11T14:35:16;8;8;
64613;PMS5003;51025;37.772;-122.432;2022-11-11T14:37:54;10;10;
64613;PMS5003;51025;37.772;-122.432;2022-11-11T14:40:32;13;11;
64613;PMS5003;51025;37.772;-122.432;2022-11-11T14:43:32;10;10;
64613;PMS5003;51025;37.772;-122.432;2022-11-11T14:46:05;12;11;
64613;PMS5003;51025;37.772;-122.432;2022-11-11T14:49:08;9;9;
64613;PMS5003;51025;37.772;-122.432;2022-11-11T14:51:41;12;11;
64613;PMS5003;51025;37.772;-122.432;2022-11-11T14:54:20;9;9;
64613;PMS5003;51025;37.772;-122.432;2022-11-11T14:57:05;12;11;
64613;PMS5003;51025;37.772;-122.432;2022-11-11T14:59:36;13;13;
64613;PMS5003;51025;37.772;-122.432;2022-11-11T15:02:10;12;9;
64613;PMS5003;51025;37.772;-122.432;2022-11-11T15:04:48;14;12;
64613;PMS5003;51025;37.772;-122.432;2022-11-11T15:07:20;14;12;
64613;PMS5003;51025;37.772;-122.432;2022-11-11T15:10:09;12;12;
64613;PMS5003;51025;37.772;-122.432;2022-11-11T15:13:11;14;13;
64613;PMS5003;51025;37.772;-122.432;2022-11-11T15:15:54;16;16;
64613;PMS5003;51025;37.772;-122.432;2022-11-11T15:18:41;17;15;
64613;PMS5003;51025;37.772;-122.432;2022-11-11T15:21:21;15;14;
64613;PMS5003;51025;37.772;-122.432;2022-11-11T15:24:02;14;14;
64613;PMS5003;51025;37.772;-122.432;2022-11-11T15:26:43;15;14;
64613;PMS5003;51025;37.772;-122.432;2022-11-11T15:29:27;14;14;
64613;PMS5003;51025;37.772;-122.432;2022-11-11T15:32:11;15;15;
64613;PMS5003;51025;37.772;-122.432;2022-11-11T15:34:51;16;16;
64613;PMS5003;51025;37.772;-122.432;2022-11-11T15:37:25;17;17;
64613;PMS5003;51025;37.772;-122.432;2022-11-11T15:39:55;15;14;
64613;PMS5003;51025;37.772;-122.432;2022-11-11T15:42:27;15;15;
64613;PMS5003;51025;37.772;-122.432;2022-11-11T15:44:59;16;16;
64613;PMS5003;51025;37.772;-122.432;2022-11-11T15:47:34;14;14;
64613;PMS5003;51025;37.772;-122.432;2022-11-11T15:50:02;13;13;
64613;PMS5003;51025;37.772;-122.432;2022-11-11T15:52:42;15;15;
64613;PMS5003;51025;37.772;-122.432;2022-11-11T15:55:17;15;14;
64613;PMS5003;51025;37.772;-122.432;2022-11-11T15:57:48;14;14;
64613;PMS5003;51025;37.772;-122.432;2022-11-11T16:00:26;13;13;
64613;PMS5003;51025;37.772;-122.432;2022-11-11T16:02:57;15;15;
64613;PMS5003;51025;37.772;-122.432;2022-11-11T16:05:27;14;14;
64613;PMS5003;51025;37.772;-122.432;2022-11-11T16:07:57;16;16;
64613;PMS5003;51025;37.772;-122.432;2022-11-11T16:10:31;17;17;
64613;PMS5003;51025;37.772;-122.432;2022-11-11T16:13:02;14;13;
64613;PMS5003;51025;37.772;-122.432;2022-11-11T16:15:37;16;14;
64613;PMS5003;51025;37.772;-122.432;2022-11-11T16:18:11;17;17;